Time;durP1;ratioP1;P1;durP2;ratioP2;P2;SDS_P1;SDS_P2;PMS_P1;PMS_P2;Temp;Humidity;BMP_temperature;BMP_pressure;BME280_temperature;BME280_humidity;BME280_pressure;Samples;Min_cycle;Max_cycle;Signal;HPM_P1;HPM_P2
2022/10/28 00:01:39;;;;;;;7.88;4.82;;;;;;;14.31;83.76;101648.94;7397787;19;20031;-70
2022/10/28 00:04:08;;;;;;;8.38;4.70;;;;;;;14.32;83.98;101645.41;7399362;19;20414;-70
2022/10/28 00:06:39;;;;;;;8.95;5.38;;;;;;;14.31;83.96;101641.88;7398833;19;20032;-70
2022/10/28 00:09:07;;;;;;;8.95;5.03;;;;;;;14.34;83.88;101654.13;7398906;19;20067;-69
2022/10/28 00:11:36;;;;;;;10.52;5.40;;;;;;;14.35;83.99;101655.88;7397450;19;20018;-70
2022/10/28 00:14:08;;;;;;;14.57;4.55;;;;;;;14.34;83.73;101656.75;7398999;19;20026;-69
2022/10/28 00:16:38;;;;;;;7.47;4.72;;;;;;;14.38;83.88;101647.00;7399147;19;20022;-69
2022/10/28 00:19:09;;;;;;;10.02;4.93;;;;;;;14.40;83.92;101638.16;7396299;19;20010;-69
2022/10/28 00:21:42;;;;;;;10.80;5.30;;;;;;;14.39;83.60;101646.97;7397334;19;20031;-69
2022/10/28 00:24:12;;;;;;;8.27;4.93;;;;;;;14.42;83.63;101651.31;7398430;19;20529;-70
2022/10/28 00:26:44;;;;;;;8.50;4.95;;;;;;;14.44;83.67;101654.78;7396801;19;20022;-69
2022/10/28 00:29:15;;;;;;;6.70;5.60;;;;;;;14.44;83.59;101650.38;7396912;19;20018;-69
2022/10/28 00:31:44;;;;;;;7.97;4.38;;;;;;;14.45;83.48;101646.81;7396350;19;20022;-69
2022/10/28 00:34:14;;;;;;;9.38;6.13;;;;;;;14.45;83.41;101640.69;7398413;19;20010;-69
2022/10/28 00:36:47;;;;;;;8.07;4.95;;;;;;;14.47;83.50;101644.16;7398592;19;20015;-69
2022/10/28 00:39:18;;;;;;;9.50;5.38;;;;;;;14.47;83.46;101639.75;7397851;19;20485;-69
2022/10/28 00:41:49;;;;;;;10.15;4.78;;;;;;;14.48;83.48;101633.56;7395861;19;20454;-69
2022/10/28 00:44:47;;;;;;;9.40;4.53;;;;;;;14.48;83.56;101632.69;7397643;19;20031;-69
2022/10/28 00:47:23;;;;;;;8.63;4.82;;;;;;;14.47;83.43;101636.25;7397512;19;20031;-69
2022/10/28 00:49:53;;;;;;;6.40;4.60;;;;;;;14.47;83.19;101626.53;7398291;19;20031;-69
2022/10/28 00:52:34;;;;;;;7.38;5.22;;;;;;;14.47;83.37;101625.69;7395558;19;20031;-70
2022/10/28 00:55:04;;;;;;;6.15;4.07;;;;;;;14.47;83.41;101630.97;7397824;19;20384;-70
2022/10/28 00:57:36;;;;;;;10.88;5.55;;;;;;;14.47;83.54;101630.97;7394838;19;20023;-70
2022/10/28 01:00:07;;;;;;;13.38;5.00;;;;;;;14.45;83.52;101620.41;7395939;19;20082;-70
2022/10/28 01:02:44;;;;;;;6.03;4.15;;;;;;;14.45;83.37;101630.97;7397815;19;20031;-70
2022/10/28 01:05:15;;;;;;;7.35;5.20;;;;;;;14.45;83.34;101620.41;7396343;19;20019;-70
2022/10/28 01:07:46;;;;;;;8.05;4.80;;;;;;;14.45;83.41;101620.41;7396813;19;20015;-70
2022/10/28 01:10:16;;;;;;;10.80;5.05;;;;;;;14.45;83.40;101625.69;7397125;19;20015;-69
2022/10/28 01:13:01;;;;;;;9.02;4.95;;;;;;;14.46;83.63;101619.53;7395937;19;20022;-68
2022/10/28 01:15:38;;;;;;;8.20;5.50;;;;;;;14.45;83.22;101615.13;7396704;19;20019;-67
2022/10/28 01:18:20;;;;;;;9.82;5.10;;;;;;;14.44;83.25;101615.19;7394870;19;20031;-67
2022/10/28 01:21:36;;;;;;;8.23;4.90;;;;;;;14.45;83.34;101616.94;7395764;19;20035;-66
2022/10/28 01:24:21;;;;;;;9.88;5.10;;;;;;;14.44;83.57;101616.03;7396383;19;20031;-67
2022/10/28 01:27:12;;;;;;;10.55;4.95;;;;;;;14.43;83.55;101614.34;7394704;19;20485;-67
2022/10/28 01:30:13;;;;;;;7.13;5.40;;;;;;;14.44;83.26;101612.53;7396585;19;20034;-67
2022/10/28 01:32:53;;;;;;;12.85;5.22;;;;;;;14.41;83.38;101613.50;7394586;19;20037;-67
2022/10/28 01:35:28;;;;;;;6.95;4.57;;;;;;;14.40;83.34;101617.03;7395981;19;20480;-67
2022/10/28 01:38:12;;;;;;;8.23;5.07;;;;;;;14.38;83.54;101613.56;7396585;19;20023;-67
2022/10/28 01:40:49;;;;;;;8.80;4.88;;;;;;;14.37;83.54;101619.75;7394745;19;20031;-67
2022/10/28 01:43:24;;;;;;;9.43;5.43;;;;;;;14.34;83.46;101611.88;7395688;19;20022;-67
2022/10/28 01:45:59;;;;;;;9.27;4.68;;;;;;;14.31;83.33;101620.75;7395541;19;20022;-67
2022/10/28 01:48:36;;;;;;;8.40;5.65;;;;;;;14.29;83.61;101613.78;7396195;19;20073;-67
2022/10/28 01:51:09;;;;;;;8.27;4.88;;;;;;;14.27;83.81;101612.97;7394905;19;20355;-67
2022/10/28 01:53:41;;;;;;;7.25;5.03;;;;;;;14.23;83.40;101609.53;7395750;19;20023;-67
2022/10/28 01:56:20;;;;;;;8.70;5.20;;;;;;;14.22;83.88;101613.06;7395373;19;20022;-67
2022/10/28 01:58:50;;;;;;;7.32;5.07;;;;;;;14.21;83.88;101616.59;7395271;19;20039;-67
2022/10/28 02:01:20;;;;;;;7.38;4.95;;;;;;;14.19;84.00;101610.47;7394437;19;20014;-67
2022/10/28 02:03:53;;;;;;;9.80;5.85;;;;;;;14.17;84.03;101618.44;7395193;19;20015;-67
2022/10/28 02:06:24;;;;;;;9.20;5.05;;;;;;;14.16;83.84;101619.31;7393213;19;20082;-68
2022/10/28 02:09:07;;;;;;;8.48;4.85;;;;;;;14.14;84.10;101617.63;7392725;19;20031;-68
2022/10/28 02:12:16;;;;;;;9.35;6.10;;;;;;;14.13;84.19;101623.84;7393595;19;20032;-68
2022/10/28 02:15:16;;;;;;;11.65;5.30;;;;;;;14.12;84.11;101622.09;7394746;19;20024;-68
2022/10/28 02:17:57;;;;;;;10.82;5.40;;;;;;;14.10;84.13;101615.97;7395454;19;20070;-68
2022/10/28 02:20:38;;;;;;;7.63;5.10;;;;;;;14.06;84.47;101609.88;7394856;19;20028;-67
2022/10/28 02:23:17;;;;;;;8.45;5.15;;;;;;;14.04;84.34;101614.34;7395073;19;20018;-68
2022/10/28 02:25:50;;;;;;;7.90;4.90;;;;;;;14.02;84.63;101616.16;7394157;19;20079;-68
2022/10/28 02:28:23;;;;;;;9.50;5.13;;;;;;;13.99;84.55;101610.94;7396610;19;20014;-68
2022/10/28 02:31:01;;;;;;;7.35;5.05;;;;;;;13.97;84.64;101607.47;7395071;19;20077;-68
2022/10/28 02:33:35;;;;;;;10.68;5.85;;;;;;;13.93;84.76;101600.53;7392442;19;20095;-68
2022/10/28 02:36:10;;;;;;;8.65;5.30;;;;;;;13.91;84.98;101597.03;7394768;19;20074;-68
2022/10/28 02:38:42;;;;;;;9.18;5.60;;;;;;;13.89;84.87;101593.56;7394581;19;20031;-68
2022/10/28 02:41:17;;;;;;;6.45;5.20;;;;;;;13.85;85.09;101593.66;7392668;19;20035;-68
2022/10/28 02:43:49;;;;;;;9.18;5.38;;;;;;;13.83;84.89;101591.94;7394761;19;20042;-67
2022/10/28 02:46:20;;;;;;;9.63;5.25;;;;;;;13.80;85.24;101595.50;7393638;19;20022;-68
2022/10/28 02:48:52;;;;;;;9.25;5.65;;;;;;;13.77;85.26;101590.28;7394239;19;20039;-68
2022/10/28 02:51:31;;;;;;;7.97;5.80;;;;;;;13.75;85.62;101596.50;7393229;19;20040;-68
2022/10/28 02:54:04;;;;;;;10.15;5.80;;;;;;;13.71;85.81;101587.81;7392980;19;20023;-68
2022/10/28 02:56:37;;;;;;;8.45;6.07;;;;;;;13.69;85.71;101594.88;7392377;19;20022;-68
2022/10/28 02:59:05;;;;;;;9.80;6.00;;;;;;;13.69;85.91;101594.88;7393005;19;20036;-68
2022/10/28 03:01:33;;;;;;;11.15;5.82;;;;;;;13.68;85.95;101593.13;7391878;19;20078;-67
2022/10/28 03:04:03;;;;;;;9.48;5.20;;;;;;;13.66;85.97;101600.19;7393517;19;20560;-68
2022/10/28 03:06:34;;;;;;;14.40;6.15;;;;;;;13.64;86.02;101600.25;7392354;19;20015;-68
2022/10/28 03:09:03;;;;;;;9.60;5.60;;;;;;;13.64;86.28;101600.25;7391192;19;20489;-68
2022/10/28 03:11:31;;;;;;;8.73;4.90;;;;;;;13.63;86.16;101598.50;7391294;19;20111;-67
2022/10/28 03:14:00;;;;;;;11.35;5.63;;;;;;;13.62;85.97;101602.06;7393630;19;20022;-68
2022/10/28 03:16:28;;;;;;;9.48;6.43;;;;;;;13.62;86.29;101598.53;7393112;19;20019;-67
2022/10/28 03:18:57;;;;;;;10.50;6.68;;;;;;;13.60;86.44;101603.84;7393508;19;20018;-67
2022/10/28 03:21:25;;;;;;;11.35;5.88;;;;;;;13.58;86.39;101600.34;7398711;19;20461;-67
2022/10/28 03:23:56;;;;;;;9.02;5.68;;;;;;;13.57;86.38;101603.03;7400581;19;20022;-69
2022/10/28 03:26:25;;;;;;;9.15;5.80;;;;;;;13.56;86.45;101599.53;7399887;19;20015;-67
2022/10/28 03:28:54;;;;;;;12.43;6.93;;;;;;;13.54;86.63;101598.69;7400434;19;20022;-68
2022/10/28 03:31:22;;;;;;;10.40;5.50;;;;;;;13.54;86.45;101600.47;7398250;19;20031;-68
2022/10/28 03:33:51;;;;;;;14.75;6.05;;;;;;;13.52;86.96;101597.84;7400178;19;20022;-68
2022/10/28 03:36:19;;;;;;;7.25;5.38;;;;;;;13.48;86.85;101589.16;7399622;19;20027;-68
2022/10/28 03:38:47;;;;;;;9.80;6.25;;;;;;;13.47;86.80;101594.44;7399985;19;20014;-70
2022/10/28 03:41:19;;;;;;;11.20;5.78;;;;;;;13.45;87.11;101589.19;7396884;19;20427;-67
2022/10/28 03:43:47;;;;;;;7.72;5.20;;;;;;;13.44;87.40;101583.97;7397789;19;20026;-68
2022/10/28 03:46:15;;;;;;;11.70;6.05;;;;;;;13.41;87.33;101586.66;7398507;19;20481;-68
2022/10/28 03:48:44;;;;;;;16.50;8.68;;;;;;;13.36;87.47;101570.91;7399410;19;20010;-68
2022/10/28 03:51:12;;;;;;;9.52;6.20;;;;;;;13.40;87.55;101585.78;7398331;19;20079;-68
2022/10/28 03:53:41;;;;;;;9.63;5.60;;;;;;;13.39;87.82;101584.06;7399639;19;20035;-68
2022/10/28 03:56:09;;;;;;;11.10;5.60;;;;;;;13.39;87.57;101572.66;7399545;19;20043;-68
2022/10/28 03:58:41;;;;;;;9.48;5.60;;;;;;;13.38;87.91;101576.19;7398981;19;20018;-68
2022/10/28 04:01:09;;;;;;;11.90;5.50;;;;;;;13.38;87.81;101581.44;7396928;19;20537;-68
2022/10/28 04:03:38;;;;;;;9.68;5.75;;;;;;;13.36;88.08;101584.09;7399158;19;20022;-68
2022/10/28 04:06:08;;;;;;;9.50;5.32;;;;;;;13.37;87.89;101585.88;7398367;19;20025;-68
2022/10/28 04:08:37;;;;;;;13.52;5.05;;;;;;;13.38;87.98;101584.09;7398884;19;20525;-68
2022/10/28 04:11:06;;;;;;;8.77;5.63;;;;;;;13.40;88.39;101574.41;7396347;19;20466;-67
2022/10/28 04:13:34;;;;;;;11.77;5.50;;;;;;;13.43;88.53;101569.06;7398469;19;20015;-67
2022/10/28 04:16:06;;;;;;;12.75;5.10;;;;;;;13.45;88.45;101578.66;7398629;19;20242;-68
2022/10/28 04:18:34;;;;;;;8.10;5.10;;;;;;;13.48;88.63;101569.81;7396747;19;20022;-67
2022/10/28 04:21:04;;;;;;;9.13;5.65;;;;;;;13.51;88.43;101572.41;7397263;19;20173;-67
2022/10/28 04:23:32;;;;;;;9.57;4.90;;;;;;;13.50;88.40;101563.63;7398487;19;20073;-68
2022/10/28 04:26:01;;;;;;;11.32;5.00;;;;;;;13.50;88.22;101565.41;7397894;19;20022;-68
2022/10/28 04:28:29;;;;;;;10.82;6.07;;;;;;;13.49;88.29;101577.69;7398249;19;20020;-67
2022/10/28 04:30:58;;;;;;;8.43;5.82;;;;;;;13.48;88.29;101575.09;7395707;19;20027;-68
2022/10/28 04:33:29;;;;;;;9.25;5.55;;;;;;;13.46;88.13;101580.41;7395991;19;20019;-68
2022/10/28 04:35:57;;;;;;;12.88;6.80;;;;;;;13.45;88.07;101583.94;7397408;19;20014;-68
2022/10/28 04:38:26;;;;;;;12.50;6.45;;;;;;;13.43;88.23;101588.34;7397601;19;20418;-68
2022/10/28 04:40:54;;;;;;;7.13;5.25;;;;;;;13.42;88.22;101589.28;7397063;19;20022;-67
2022/10/28 04:43:23;;;;;;;11.65;5.53;;;;;;;13.40;88.36;101598.13;7397914;19;20018;-67
2022/10/28 04:45:51;;;;;;;15.50;5.70;;;;;;;13.37;88.72;101585.88;7395378;19;20502;-69
2022/10/28 04:48:20;;;;;;;11.65;5.53;;;;;;;13.35;88.67;101582.34;7397546;19;20022;-69
2022/10/28 04:50:52;;;;;;;13.73;5.68;;;;;;;13.33;88.81;101569.22;7395261;19;20019;-68
2022/10/28 04:53:20;;;;;;;9.60;5.13;;;;;;;13.33;88.83;101573.59;7397859;19;20010;-68
2022/10/28 04:55:49;;;;;;;18.20;6.40;;;;;;;13.33;88.75;101563.94;7397081;19;20549;-68
2022/10/28 04:58:17;;;;;;;12.23;5.88;;;;;;;13.33;88.89;101563.06;7395084;19;20015;-69
2022/10/28 05:00:46;;;;;;;11.07;5.60;;;;;;;13.32;88.73;101553.41;7395713;19;20014;-68
2022/10/28 05:03:14;;;;;;;13.38;5.40;;;;;;;13.32;88.66;101556.94;7397360;19;20015;-69
2022/10/28 05:05:43;;;;;;;12.90;5.35;;;;;;;13.31;88.92;101556.97;7395270;19;20015;-69
2022/10/28 05:08:14;;;;;;;12.55;5.97;;;;;;;13.31;88.75;101559.59;7395175;19;20035;-68
2022/10/28 05:10:44;;;;;;;11.02;5.60;;;;;;;13.30;88.81;101561.34;7395205;19;20025;-68
2022/10/28 05:13:12;;;;;;;13.45;5.35;;;;;;;13.30;88.88;101565.78;7396133;19;20495;-68
2022/10/28 05:15:41;;;;;;;8.13;4.60;;;;;;;13.30;88.81;101571.03;7394570;19;20399;-68
2022/10/28 05:18:09;;;;;;;10.07;5.30;;;;;;;13.30;88.74;101557.88;7396444;19;20018;-69
2022/10/28 05:20:38;;;;;;;10.27;5.18;;;;;;;13.29;88.76;101556.97;7395607;19;20018;-68
2022/10/28 05:23:07;;;;;;;9.35;5.20;;;;;;;13.31;88.80;101559.59;7395985;19;20018;-68
2022/10/28 05:25:38;;;;;;;8.25;4.68;;;;;;;13.31;88.80;101552.56;7396420;19;20014;-69
2022/10/28 05:28:07;;;;;;;8.98;5.40;;;;;;;13.32;88.79;101558.69;7395407;19;20014;-68
2022/10/28 05:30:35;;;;;;;8.77;5.05;;;;;;;13.33;88.54;101549.88;7395500;19;20019;-68
2022/10/28 05:33:04;;;;;;;14.23;5.50;;;;;;;13.33;88.75;101558.66;7396341;19;20039;-68
2022/10/28 05:35:32;;;;;;;12.45;4.75;;;;;;;13.34;88.56;101557.78;7396278;19;20023;-69
2022/10/28 05:38:01;;;;;;;9.23;4.78;;;;;;;13.36;88.62;101563.00;7395695;19;20022;-68
2022/10/28 05:40:31;;;;;;;9.57;5.32;;;;;;;13.38;88.51;101560.38;7395871;19;20024;-69
2022/10/28 05:43:02;;;;;;;8.02;5.05;;;;;;;13.39;88.25;101568.25;7392978;19;20078;-68
2022/10/28 05:45:31;;;;;;;10.57;5.15;;;;;;;13.41;88.50;101560.28;7394019;19;20032;-67
2022/10/28 05:47:59;;;;;;;11.10;5.28;;;;;;;13.41;88.41;101553.28;7394085;19;20473;-68
2022/10/28 05:50:28;;;;;;;9.63;5.47;;;;;;;13.44;88.09;101555.84;7395380;19;20426;-69
2022/10/28 05:52:58;;;;;;;7.07;4.68;;;;;;;13.44;87.98;101552.34;7393990;19;20022;-69
2022/10/28 05:55:30;;;;;;;10.35;5.18;;;;;;;13.45;88.36;101559.34;7395251;19;20378;-68
2022/10/28 05:58:01;;;;;;;10.65;4.68;;;;;;;13.46;88.16;101559.31;7395809;19;20045;-69
2022/10/28 06:00:31;;;;;;;10.20;4.88;;;;;;;13.49;87.94;101559.25;7394453;19;20014;-68
2022/10/28 06:03:08;;;;;;;11.63;5.50;;;;;;;13.50;88.02;101544.31;7393598;19;20031;-68
2022/10/28 06:05:36;;;;;;;9.70;5.00;;;;;;;13.54;87.79;101542.47;7394678;19;20488;-69
2022/10/28 06:08:06;;;;;;;7.97;4.72;;;;;;;13.54;87.73;101545.97;7393045;19;20422;-68
2022/10/28 06:10:35;;;;;;;8.73;5.07;;;;;;;13.58;87.78;101546.78;7394078;19;20031;-67
2022/10/28 06:13:07;;;;;;;9.23;4.50;;;;;;;13.60;87.65;101540.56;7394618;19;20019;-68
2022/10/28 06:15:36;;;;;;;8.38;4.75;;;;;;;13.61;87.42;101537.03;7395216;19;20018;-68
2022/10/28 06:18:10;;;;;;;12.27;5.55;;;;;;;13.64;87.51;101547.50;7394684;19;20028;-68
2022/10/28 06:20:39;;;;;;;10.23;4.60;;;;;;;13.67;87.36;101549.19;7394246;19;20019;-68
2022/10/28 06:23:07;;;;;;;7.53;4.45;;;;;;;13.69;87.20;101556.19;7394578;19;20509;-69
2022/10/28 06:25:36;;;;;;;8.55;4.72;;;;;;;13.71;87.24;101550.91;7395065;19;20081;-69
2022/10/28 06:28:08;;;;;;;7.38;4.70;;;;;;;13.74;86.99;101552.59;7393401;19;20090;-67
2022/10/28 06:30:37;;;;;;;10.75;4.72;;;;;;;13.76;87.22;101556.94;7394206;19;20018;-68
2022/10/28 06:33:05;;;;;;;8.07;4.35;;;;;;;13.83;86.92;101553.22;7392150;19;20031;-66
2022/10/28 06:35:34;;;;;;;10.38;4.40;;;;;;;13.85;86.93;101559.34;7393805;19;20014;-68
2022/10/28 06:38:02;;;;;;;11.05;4.55;;;;;;;13.89;86.38;101554.88;7394448;19;20022;-68
2022/10/28 06:40:31;;;;;;;8.63;4.28;;;;;;;13.92;86.53;101557.44;7393632;19;20022;-68
2022/10/28 06:43:00;;;;;;;7.72;4.03;;;;;;;13.96;86.39;101560.88;7393825;19;20502;-68
2022/10/28 06:45:32;;;;;;;5.68;3.75;;;;;;;13.98;86.19;101564.34;7393838;19;20011;-68
2022/10/28 06:48:02;;;;;;;7.75;4.40;;;;;;;14.00;85.84;101571.34;7393530;19;20019;-68
2022/10/28 06:50:31;;;;;;;10.55;4.80;;;;;;;14.05;85.91;101583.53;7393054;19;20368;-68
2022/10/28 06:53:00;;;;;;;6.93;3.60;;;;;;;14.07;85.60;101569.41;7391780;19;20011;-68
2022/10/28 06:55:29;;;;;;;9.65;4.65;;;;;;;14.09;85.61;101559.69;7398686;19;20424;-69
2022/10/28 06:58:01;;;;;;;8.50;4.30;;;;;;;14.12;85.40;101564.91;7400798;19;20502;-69
2022/10/28 07:00:34;;;;;;;11.85;4.15;;;;;;;14.16;85.17;101570.97;7399808;19;20384;-69
2022/10/28 07:03:02;;;;;;;9.70;4.75;;;;;;;14.17;85.10;101583.28;7398969;19;20011;-67
2022/10/28 07:05:31;;;;;;;7.05;4.18;;;;;;;14.15;85.01;101572.75;7401080;19;20022;-66
2022/10/28 07:07:59;;;;;;;10.30;4.43;;;;;;;14.21;84.74;101581.44;7398913;19;20477;-68
2022/10/28 07:10:28;;;;;;;9.07;4.13;;;;;;;14.23;84.89;101572.56;7399752;19;20035;-69
2022/10/28 07:12:56;;;;;;;7.93;3.95;;;;;;;14.26;84.93;101575.13;7400658;19;20032;-69
2022/10/28 07:15:25;;;;;;;9.75;4.40;;;;;;;14.29;84.55;101571.53;7400482;19;20018;-69
2022/10/28 07:17:57;;;;;;;14.18;5.13;;;;;;;14.32;84.53;101567.06;7400504;19;20384;-69
2022/10/28 07:20:28;;;;;;;9.32;4.22;;;;;;;14.37;84.40;101576.63;7397454;19;20031;-69
2022/10/28 07:23:00;;;;;;;9.70;4.15;;;;;;;14.42;84.16;101578.28;7400739;19;20027;-67
2022/10/28 07:25:30;;;;;;;8.98;4.53;;;;;;;14.48;84.25;101577.22;7400521;19;20023;-68
2022/10/28 07:27:59;;;;;;;8.95;4.07;;;;;;;14.55;83.62;101564.78;7398903;19;20015;-67
2022/10/28 07:30:28;;;;;;;11.68;4.20;;;;;;;14.60;84.06;101566.38;7399872;19;20019;-69
2022/10/28 07:33:00;;;;;;;12.02;4.75;;;;;;;14.68;83.62;101582.06;7399582;19;20091;-69
2022/10/28 07:35:35;;;;;;;7.18;3.72;;;;;;;14.74;83.32;101566.03;7397205;19;20489;-69
2022/10/28 07:38:03;;;;;;;8.57;4.43;;;;;;;14.80;83.18;101559.75;7400186;19;20078;-74
2022/10/28 07:40:32;;;;;;;8.38;3.67;;;;;;;14.88;82.58;101551.63;7399402;19;20019;-69
2022/10/28 07:43:00;;;;;;;10.27;4.25;;;;;;;14.91;82.73;101549.75;7397125;19;20014;-69
2022/10/28 07:45:29;;;;;;;7.40;3.53;;;;;;;14.99;82.35;101568.06;7399924;19;20024;-70
2022/10/28 07:48:00;;;;;;;13.52;4.45;;;;;;;15.05;81.80;101567.00;7397280;19;20031;-70
2022/10/28 07:50:28;;;;;;;9.23;3.92;;;;;;;15.08;81.64;101564.28;7397759;19;20014;-69
2022/10/28 07:52:57;;;;;;;8.75;4.18;;;;;;;15.14;81.59;101572.91;7400077;19;20090;-69
2022/10/28 07:55:25;;;;;;;5.13;3.55;;;;;;;15.20;81.31;101571.00;7397159;19;20026;-69
2022/10/28 07:57:54;;;;;;;7.15;4.20;;;;;;;15.23;81.33;101574.44;7399182;19;20433;-69
2022/10/28 08:00:22;;;;;;;11.77;4.07;;;;;;;15.28;81.42;101572.53;7397028;19;20481;-67
2022/10/28 08:02:51;;;;;;;9.15;3.97;;;;;;;15.32;80.73;101568.03;7396204;19;20019;-68
2022/10/28 08:05:22;;;;;;;8.60;3.45;;;;;;;15.37;80.43;101571.41;7398259;19;20022;-68
2022/10/28 08:07:51;;;;;;;8.20;3.60;;;;;;;15.40;80.23;101559.88;7396336;19;20368;-67
2022/10/28 08:10:19;;;;;;;8.98;3.90;;;;;;;15.45;80.38;101560.59;7398233;19;20018;-67
2022/10/28 08:12:48;;;;;;;7.47;3.45;;;;;;;15.51;80.13;101559.56;7398519;19;20019;-69
2022/10/28 08:15:17;;;;;;;7.80;4.07;;;;;;;15.57;79.70;101567.28;7398202;19;20010;-68
2022/10/28 08:17:45;;;;;;;11.93;4.07;;;;;;;15.63;79.29;101556.53;7395989;19;20011;-67
2022/10/28 08:20:14;;;;;;;8.50;4.95;;;;;;;15.69;79.31;101556.34;7398088;19;20026;-68
2022/10/28 08:22:45;;;;;;;6.32;3.63;;;;;;;15.76;78.82;101551.75;7398029;19;20422;-69
2022/10/28 08:25:14;;;;;;;6.93;3.50;;;;;;;15.85;78.40;101550.66;7398721;19;20023;-69
2022/10/28 08:27:42;;;;;;;10.77;4.10;;;;;;;15.92;78.23;101553.06;7397421;19;20031;-69
2022/10/28 08:30:12;;;;;;;7.28;3.10;;;;;;;15.99;78.34;101548.41;7398018;19;20027;-71
2022/10/28 08:32:40;;;;;;;6.57;3.47;;;;;;;16.06;78.31;101541.13;7398046;19;20088;-70
2022/10/28 08:35:10;;;;;;;7.15;4.10;;;;;;;16.11;78.19;101536.56;7397765;19;20031;-71
2022/10/28 08:37:38;;;;;;;6.60;3.35;;;;;;;16.17;78.06;101525.78;7397356;19;20498;-69
2022/10/28 08:40:13;;;;;;;7.55;3.40;;;;;;;16.23;77.94;101532.66;7397294;19;20031;-68
2022/10/28 08:42:47;;;;;;;10.95;3.60;;;;;;;16.27;77.63;101523.69;7395459;19;20018;-69
2022/10/28 08:45:22;;;;;;;9.13;3.90;;;;;;;16.28;77.32;101521.00;7397753;19;20022;-69
2022/10/28 08:48:03;;;;;;;8.32;4.28;;;;;;;16.32;77.06;101526.22;7396650;19;20489;-69
2022/10/28 08:50:32;;;;;;;7.38;3.42;;;;;;;16.35;77.44;101518.16;7395511;19;20031;-69
2022/10/28 08:53:06;;;;;;;8.27;3.35;;;;;;;16.38;77.17;101520.72;7397091;19;20031;-69
2022/10/28 08:55:42;;;;;;;8.23;3.30;;;;;;;16.41;77.02;101525.88;7398220;19;20026;-67
2022/10/28 08:58:18;;;;;;;7.32;4.00;;;;;;;16.45;76.88;101530.16;7395567;19;20035;-68
2022/10/28 09:01:02;;;;;;;13.32;3.40;;;;;;;16.52;76.78;101529.03;7395933;19;20018;-69
2022/10/28 09:03:34;;;;;;;10.48;4.00;;;;;;;16.58;76.10;101525.28;7397010;19;20019;-69
2022/10/28 09:06:05;;;;;;;8.57;3.22;;;;;;;16.66;76.04;101525.06;7397505;19;20018;-68
2022/10/28 09:08:37;;;;;;;7.15;3.83;;;;;;;16.70;75.74;101524.03;7394937;19;20367;-69
2022/10/28 09:11:20;;;;;;;11.05;3.80;;;;;;;16.76;74.99;101527.31;7395790;19;20035;-70
2022/10/28 09:14:04;;;;;;;6.93;3.33;;;;;;;16.80;74.94;101527.22;7395270;19;20027;-70
2022/10/28 09:16:43;;;;;;;5.82;3.72;;;;;;;16.84;75.49;101540.28;7393986;19;20022;-68
2022/10/28 09:19:26;;;;;;;6.80;3.67;;;;;;;16.87;75.13;101540.19;7394652;19;20028;-71
2022/10/28 09:22:02;;;;;;;6.95;3.08;;;;;;;16.91;75.36;101535.69;7394921;19;20018;-70
2022/10/28 09:24:42;;;;;;;7.70;3.45;;;;;;;16.91;75.22;101536.53;7395262;19;20018;-70
2022/10/28 09:27:21;;;;;;;10.27;3.40;;;;;;;16.98;74.93;101531.03;7395253;19;20101;-70
2022/10/28 09:30:00;;;;;;;6.80;3.22;;;;;;;17.01;74.64;101534.44;7396189;19;20083;-69
2022/10/28 09:32:41;;;;;;;10.02;3.40;;;;;;;17.04;74.53;101536.09;7396536;19;20039;-69
2022/10/28 09:35:15;;;;;;;6.50;3.50;;;;;;;17.08;74.71;101533.25;7395495;19;20031;-68
2022/10/28 09:37:49;;;;;;;7.15;3.97;;;;;;;17.13;75.24;101535.75;7396110;19;20126;-68
2022/10/28 09:40:19;;;;;;;;;;;;;;;17.17;74.38;101520.59;7396177;19;20529;-69
2022/10/28 09:42:59;;;;;;;11.63;3.58;;;;;;;17.22;74.53;101519.50;7397605;19;19978;-68
2022/10/28 09:45:30;;;;;;;10.07;3.63;;;;;;;17.28;74.48;101529.03;7393551;19;20395;-69
2022/10/28 09:48:03;;;;;;;12.60;3.45;;;;;;;17.33;74.53;101524.41;7394473;19;20035;-67
2022/10/28 09:50:34;;;;;;;6.28;3.53;;;;;;;17.40;74.05;101512.66;7395946;19;20130;-68
2022/10/28 09:53:10;;;;;;;8.32;3.42;;;;;;;17.50;74.07;101520.25;7395764;19;20477;-66
2022/10/28 09:55:39;;;;;;;8.82;3.65;;;;;;;17.56;73.96;101522.66;7395009;19;20014;-67
2022/10/28 09:58:13;;;;;;;6.03;3.38;;;;;;;17.63;73.15;101513.56;7395227;19;20023;-67
2022/10/28 10:00:42;;;;;;;10.38;3.20;;;;;;;17.67;73.57;101509.00;7395416;19;20018;-69
2022/10/28 10:03:11;;;;;;;8.82;3.20;;;;;;;17.75;73.24;101509.53;7395501;19;20023;-66
2022/10/28 10:05:45;;;;;;;8.02;3.33;;;;;;;17.82;73.00;101507.50;7394830;19;20023;-67
2022/10/28 10:08:16;;;;;;;10.43;3.22;;;;;;;17.91;72.85;101515.13;7395266;19;20014;-69
2022/10/28 10:10:50;;;;;;;7.55;3.00;;;;;;;17.99;72.77;101510.38;7394252;19;20374;-68
2022/10/28 10:13:27;;;;;;;8.88;3.83;;;;;;;18.06;72.04;101503.03;7395136;19;20021;-67
2022/10/28 10:15:58;;;;;;;8.23;3.05;;;;;;;18.13;72.65;101503.66;7393812;19;20029;-66
2022/10/28 10:18:31;;;;;;;11.38;3.13;;;;;;;18.24;73.09;101498.75;7396163;19;20027;-70
2022/10/28 10:21:01;;;;;;;10.85;3.70;;;;;;;18.34;72.38;101500.09;7395230;19;20488;-69
2022/10/28 10:23:32;;;;;;;9.02;3.17;;;;;;;18.41;72.13;101492.72;7393103;19;20023;-69
2022/10/28 10:26:04;;;;;;;7.90;3.17;;;;;;;18.49;71.88;101501.22;7392649;19;20549;-68
2022/10/28 10:28:37;;;;;;;11.20;3.50;;;;;;;18.52;71.60;101486.94;7395496;19;20015;-69
2022/10/28 10:31:08;;;;;;;9.68;3.45;;;;;;;18.62;71.96;101495.38;7400076;19;20461;-68
2022/10/28 10:33:39;;;;;;;13.95;3.80;;;;;;;18.67;71.52;101494.25;7401912;19;20037;-68
2022/10/28 10:36:16;;;;;;;8.32;3.35;;;;;;;18.75;70.77;101498.38;7399043;19;20035;-68
2022/10/28 10:38:50;;;;;;;12.88;3.67;;;;;;;18.81;71.16;101488.31;7399073;19;20027;-68
2022/10/28 10:41:37;;;;;;;6.97;3.55;;;;;;;18.89;69.39;101490.63;7402760;19;20026;-69
2022/10/28 10:44:27;;;;;;;9.43;3.75;;;;;;;18.97;68.70;101482.34;7402321;19;20011;-69
2022/10/28 10:47:21;;;;;;;10.68;2.97;;;;;;;19.02;68.75;101483.03;7399157;19;20036;-69
2022/10/28 10:49:50;;;;;;;5.47;3.05;;;;;;;19.10;69.31;101486.16;7398609;19;20037;-68
2022/10/28 10:52:24;;;;;;;6.07;3.10;;;;;;;19.14;68.58;101476.25;7398469;19;20019;-69
2022/10/28 10:55:06;;;;;;;7.40;2.70;;;;;;;19.19;68.71;101475.09;7401425;19;20031;-69
2022/10/28 10:57:36;;;;;;;5.45;2.67;;;;;;;19.25;68.75;101479.28;7400916;19;20038;-69
2022/10/28 11:00:08;;;;;;;8.05;2.50;;;;;;;19.29;67.60;101472.03;7397789;19;20031;-68
2022/10/28 11:02:40;;;;;;;6.28;2.92;;;;;;;19.33;68.02;101469.13;7398140;19;20488;-69
2022/10/28 11:05:12;;;;;;;7.03;2.70;;;;;;;19.38;67.93;101463.59;7400648;19;20014;-68
2022/10/28 11:07:48;;;;;;;10.05;3.13;;;;;;;19.43;66.19;101460.72;7397948;19;20026;-67
2022/10/28 11:10:24;;;;;;;10.88;3.40;;;;;;;19.46;66.61;101464.13;7398232;19;20034;-67
2022/10/28 11:12:54;;;;;;;7.72;3.03;;;;;;;19.51;67.10;101461.22;7397877;19;20014;-68
2022/10/28 11:15:28;;;;;;;10.18;3.58;;;;;;;19.53;66.29;101452.22;7400072;19;20018;-68
2022/10/28 11:18:02;;;;;;;8.52;3.10;;;;;;;19.58;66.78;101457.31;7399427;19;20019;-69
2022/10/28 11:20:36;;;;;;;;;;;;;;;19.60;66.10;101444.81;7397293;19;20457;-69
2022/10/28 11:23:22;;;;;;;8.70;2.85;;;;;;;19.62;66.11;101434.94;7399560;19;19982;-68
2022/10/28 11:25:54;;;;;;;8.55;2.95;;;;;;;19.68;66.72;101431.97;7399622;19;20400;-69
2022/10/28 11:28:40;;;;;;;9.05;3.53;;;;;;;19.72;66.10;101432.69;7398775;19;20079;-69
2022/10/28 11:31:42;;;;;;;8.77;2.80;;;;;;;19.78;66.40;101434.22;7397048;19;20094;-68
2022/10/28 11:34:25;;;;;;;7.43;2.85;;;;;;;19.83;66.42;101434.88;7397124;19;20474;-69
2022/10/28 11:37:04;;;;;;;8.00;2.97;;;;;;;19.88;66.68;101424.84;7400701;19;20019;-68
2022/10/28 11:39:36;;;;;;;9.10;3.08;;;;;;;19.94;66.56;101431.66;7397060;19;20105;-68
2022/10/28 11:42:17;;;;;;;10.80;2.97;;;;;;;19.99;65.89;101424.28;7396473;19;20022;-68
2022/10/28 11:44:54;;;;;;;5.75;2.63;;;;;;;20.06;66.14;101422.19;7399797;19;20018;-68
2022/10/28 11:47:39;;;;;;;9.23;3.00;;;;;;;20.13;65.96;101431.56;7398894;19;20031;-68